sensor_id;sensor_type;location;lat;lon;timestamp;temperature;humidity
1956;DHT22;978;48.314;11.562;2023-09-19T00:00:27;24.90;90.00
1956;DHT22;978;48.314;11.562;2023-09-19T00:02:54;24.00;89.60
1956;DHT22;978;48.314;11.562;2023-09-19T00:05:22;24.50;89.80
1956;DHT22;978;48.314;11.562;2023-09-19T00:07:55;24.10;89.50
1956;DHT22;978;48.314;11.562;2023-09-19T00:10:25;24.00;89.40
1956;DHT22;978;48.314;11.562;2023-09-19T00:12:57;24.00;89.40
1956;DHT22;978;48.314;11.562;2023-09-19T00:15:27;24.20;89.60
1956;DHT22;978;48.314;11.562;2023-09-19T00:17:55;24.00;89.40
1956;DHT22;978;48.314;11.562;2023-09-19T00:20:22;24.00;89.40
1956;DHT22;978;48.314;11.562;2023-09-19T00:22:52;24.00;89.40
1956;DHT22;978;48.314;11.562;2023-09-19T00:25:20;24.00;89.30
1956;DHT22;978;48.314;11.562;2023-09-19T00:27:48;24.00;89.30
1956;DHT22;978;48.314;11.562;2023-09-19T00:30:18;24.00;89.30
1956;DHT22;978;48.314;11.562;2023-09-19T00:32:53;24.00;89.30
1956;DHT22;978;48.314;11.562;2023-09-19T00:35:20;24.00;89.30
1956;DHT22;978;48.314;11.562;2023-09-19T00:37:50;24.00;89.20
1956;DHT22;978;48.314;11.562;2023-09-19T00:40:20;24.10;89.30
1956;DHT22;978;48.314;11.562;2023-09-19T00:42:49;24.00;89.10
1956;DHT22;978;48.314;11.562;2023-09-19T00:45:17;24.00;89.20
1956;DHT22;978;48.314;11.562;2023-09-19T00:47:50;24.00;89.10
1956;DHT22;978;48.314;11.562;2023-09-19T00:50:19;24.00;89.10
1956;DHT22;978;48.314;11.562;2023-09-19T00:52:50;24.00;89.20
1956;DHT22;978;48.314;11.562;2023-09-19T00:55:21;24.00;89.70
1956;DHT22;978;48.314;11.562;2023-09-19T00:57:49;24.00;89.10
1956;DHT22;978;48.314;11.562;2023-09-19T01:00:18;24.00;89.10
1956;DHT22;978;48.314;11.562;2023-09-19T01:02:47;24.00;89.00
1956;DHT22;978;48.314;11.562;2023-09-19T01:05:17;24.00;89.10
1956;DHT22;978;48.314;11.562;2023-09-19T01:07:44;24.00;89.00
1956;DHT22;978;48.314;11.562;2023-09-19T01:10:17;24.60;89.30
1956;DHT22;978;48.314;11.562;2023-09-19T01:13:03;24.00;89.00
1956;DHT22;978;48.314;11.562;2023-09-19T01:15:40;24.00;88.90
1956;DHT22;978;48.314;11.562;2023-09-19T01:18:16;24.00;88.90
1956;DHT22;978;48.314;11.562;2023-09-19T01:20:57;24.00;88.90
1956;DHT22;978;48.314;11.562;2023-09-19T01:23:38;24.00;88.90
1956;DHT22;978;48.314;11.562;2023-09-19T01:26:30;24.00;88.80
1956;DHT22;978;48.314;11.562;2023-09-19T01:29:17;24.00;88.80
1956;DHT22;978;48.314;11.562;2023-09-19T01:31:59;24.20;88.90
1956;DHT22;978;48.314;11.562;2023-09-19T01:34:43;24.00;88.80
1956;DHT22;978;48.314;11.562;2023-09-19T01:37:17;24.00;88.80
1956;DHT22;978;48.314;11.562;2023-09-19T01:39:47;24.00;88.80
1956;DHT22;978;48.314;11.562;2023-09-19T01:42:30;24.00;88.70
1956;DHT22;978;48.314;11.562;2023-09-19T01:45:06;24.10;88.70
1956;DHT22;978;48.314;11.562;2023-09-19T01:47:46;24.00;88.70
1956;DHT22;978;48.314;11.562;2023-09-19T01:50:21;24.00;88.60
1956;DHT22;978;48.314;11.562;2023-09-19T01:52:57;24.00;88.60
1956;DHT22;978;48.314;11.562;2023-09-19T01:55:28;25.60;89.60
1956;DHT22;978;48.314;11.562;2023-09-19T01:58:01;24.50;89.00
1956;DHT22;978;48.314;11.562;2023-09-19T02:00:34;24.00;88.60
1956;DHT22;978;48.314;11.562;2023-09-19T02:03:04;24.00;88.60
1956;DHT22;978;48.314;11.562;2023-09-19T02:05:32;23.90;88.50
1956;DHT22;978;48.314;11.562;2023-09-19T02:07:59;24.00;88.60
1956;DHT22;978;48.314;11.562;2023-09-19T02:10:26;24.00;88.60
1956;DHT22;978;48.314;11.562;2023-09-19T02:12:57;24.10;88.60
1956;DHT22;978;48.314;11.562;2023-09-19T02:15:24;24.50;88.80
1956;DHT22;978;48.314;11.562;2023-09-19T02:17:52;24.00;88.50
1956;DHT22;978;48.314;11.562;2023-09-19T02:20:24;24.00;88.50
1956;DHT22;978;48.314;11.562;2023-09-19T02:22:53;23.90;88.50
1956;DHT22;978;48.314;11.562;2023-09-19T02:25:20;24.00;88.50
1956;DHT22;978;48.314;11.562;2023-09-19T02:27:46;24.00;88.50
1956;DHT22;978;48.314;11.562;2023-09-19T02:30:18;24.00;88.50
1956;DHT22;978;48.314;11.562;2023-09-19T02:32:46;24.00;88.40
1956;DHT22;978;48.314;11.562;2023-09-19T02:35:16;24.00;88.50
1956;DHT22;978;48.314;11.562;2023-09-19T02:37:46;23.90;88.40
1956;DHT22;978;48.314;11.562;2023-09-19T02:40:14;24.00;88.40
1956;DHT22;978;48.314;11.562;2023-09-19T02:42:45;23.90;88.40
1956;DHT22;978;48.314;11.562;2023-09-19T02:45:17;23.90;88.40
1956;DHT22;978;48.314;11.562;2023-09-19T02:47:44;24.00;88.40
1956;DHT22;978;48.314;11.562;2023-09-19T02:50:11;24.00;88.90
1956;DHT22;978;48.314;11.562;2023-09-19T02:52:40;24.00;88.40
1956;DHT22;978;48.314;11.562;2023-09-19T02:55:12;24.00;88.30
1956;DHT22;978;48.314;11.562;2023-09-19T02:57:40;24.00;88.30
1956;DHT22;978;48.314;11.562;2023-09-19T03:00:10;23.90;88.20
1956;DHT22;978;48.314;11.562;2023-09-19T03:02:39;24.00;88.30
1956;DHT22;978;48.314;11.562;2023-09-19T03:05:07;24.00;88.30
1956;DHT22;978;48.314;11.562;2023-09-19T03:07:37;24.00;88.30
1956;DHT22;978;48.314;11.562;2023-09-19T03:10:05;24.00;88.30
1956;DHT22;978;48.314;11.562;2023-09-19T03:12:38;24.00;88.20
1956;DHT22;978;48.314;11.562;2023-09-19T03:15:06;24.00;88.20
1956;DHT22;978;48.314;11.562;2023-09-19T03:17:34;24.00;88.20
1956;DHT22;978;48.314;11.562;2023-09-19T03:20:01;24.00;88.20
1956;DHT22;978;48.314;11.562;2023-09-19T03:22:28;23.90;88.10
1956;DHT22;978;48.314;11.562;2023-09-19T03:24:56;24.00;88.20
1956;DHT22;978;48.314;11.562;2023-09-19T03:27:23;24.00;88.10
1956;DHT22;978;48.314;11.562;2023-09-19T03:29:54;23.90;88.10
1956;DHT22;978;48.314;11.562;2023-09-19T03:32:21;24.00;88.10
1956;DHT22;978;48.314;11.562;2023-09-19T03:34:48;24.00;88.10
1956;DHT22;978;48.314;11.562;2023-09-19T03:37:16;23.90;88.10
1956;DHT22;978;48.314;11.562;2023-09-19T03:39:43;23.90;88.00
1956;DHT22;978;48.314;11.562;2023-09-19T03:42:11;23.90;88.00
1956;DHT22;978;48.314;11.562;2023-09-19T03:44:39;23.90;88.00
1956;DHT22;978;48.314;11.562;2023-09-19T03:47:07;24.00;88.10
1956;DHT22;978;48.314;11.562;2023-09-19T03:49:35;24.00;88.00
1956;DHT22;978;48.314;11.562;2023-09-19T03:52:03;24.00;88.00
1956;DHT22;978;48.314;11.562;2023-09-19T03:54:30;23.90;88.50
1956;DHT22;978;48.314;11.562;2023-09-19T03:57:00;24.00;88.00
1956;DHT22;978;48.314;11.562;2023-09-19T03:59:28;24.00;88.00
1956;DHT22;978;48.314;11.562;2023-09-19T04:01:57;24.00;88.00
1956;DHT22;978;48.314;11.562;2023-09-19T04:04:26;24.00;88.00
1956;DHT22;978;48.314;11.562;2023-09-19T04:06:56;25.70;89.10
1956;DHT22;978;48.314;11.562;2023-09-19T04:09:22;25.40;88.90
1956;DHT22;978;48.314;11.562;2023-09-19T04:11:49;24.00;88.00
1956;DHT22;978;48.314;11.562;2023-09-19T04:14:17;23.90;88.10
1956;DHT22;978;48.314;11.562;2023-09-19T04:16:44;23.90;88.00
1956;DHT22;978;48.314;11.562;2023-09-19T04:19:11;23.90;88.10
1956;DHT22;978;48.314;11.562;2023-09-19T04:21:43;24.10;88.10
1956;DHT22;978;48.314;11.562;2023-09-19T04:24:10;24.30;88.30
1956;DHT22;978;48.314;11.562;2023-09-19T04:26:39;23.90;88.20
1956;DHT22;978;48.314;11.562;2023-09-19T04:29:09;23.90;88.20
1956;DHT22;978;48.314;11.562;2023-09-19T04:31:37;24.20;88.40
1956;DHT22;978;48.314;11.562;2023-09-19T04:34:06;24.00;88.30
1956;DHT22;978;48.314;11.562;2023-09-19T04:36:34;24.00;88.30
1956;DHT22;978;48.314;11.562;2023-09-19T04:39:05;24.00;88.30
1956;DHT22;978;48.314;11.562;2023-09-19T04:41:33;24.00;88.30
1956;DHT22;978;48.314;11.562;2023-09-19T04:44:01;23.90;88.20
1956;DHT22;978;48.314;11.562;2023-09-19T04:46:31;23.90;88.20
1956;DHT22;978;48.314;11.562;2023-09-19T04:48:59;23.90;88.20
1956;DHT22;978;48.314;11.562;2023-09-19T04:51:26;24.00;88.30
1956;DHT22;978;48.314;11.562;2023-09-19T04:53:57;24.70;88.70
1956;DHT22;978;48.314;11.562;2023-09-19T04:56:25;24.00;88.30
1956;DHT22;978;48.314;11.562;2023-09-19T04:58:55;24.00;88.20
1956;DHT22;978;48.314;11.562;2023-09-19T05:01:23;24.00;88.20
1956;DHT22;978;48.314;11.562;2023-09-19T05:03:50;24.00;88.10
1956;DHT22;978;48.314;11.562;2023-09-19T05:06:19;24.00;88.20
1956;DHT22;978;48.314;11.562;2023-09-19T05:08:49;24.20;88.30
1956;DHT22;978;48.314;11.562;2023-09-19T05:11:19;24.00;88.20
1956;DHT22;978;48.314;11.562;2023-09-19T05:13:48;24.00;88.20
1956;DHT22;978;48.314;11.562;2023-09-19T05:16:17;24.40;88.50
1956;DHT22;978;48.314;11.562;2023-09-19T05:18:46;23.90;88.20
1956;DHT22;978;48.314;11.562;2023-09-19T05:21:13;24.10;88.30
1956;DHT22;978;48.314;11.562;2023-09-19T05:23:44;24.10;88.30
1956;DHT22;978;48.314;11.562;2023-09-19T05:26:11;24.00;88.30
1956;DHT22;978;48.314;11.562;2023-09-19T05:28:39;24.00;88.20
1956;DHT22;978;48.314;11.562;2023-09-19T05:31:07;25.60;89.20
1956;DHT22;978;48.314;11.562;2023-09-19T05:33:35;23.90;88.10
1956;DHT22;978;48.314;11.562;2023-09-19T05:36:04;23.90;88.20
1956;DHT22;978;48.314;11.562;2023-09-19T05:38:31;24.00;88.30
1956;DHT22;978;48.314;11.562;2023-09-19T05:40:58;24.70;89.30
1956;DHT22;978;48.314;11.562;2023-09-19T05:43:25;24.00;88.30
1956;DHT22;978;48.314;11.562;2023-09-19T05:45:52;23.90;88.20
1956;DHT22;978;48.314;11.562;2023-09-19T05:48:21;23.90;88.20
1956;DHT22;978;48.314;11.562;2023-09-19T05:50:48;24.00;88.30
1956;DHT22;978;48.314;11.562;2023-09-19T05:53:16;24.00;88.30
1956;DHT22;978;48.314;11.562;2023-09-19T05:55:45;24.00;88.20
1956;DHT22;978;48.314;11.562;2023-09-19T05:58:12;23.90;88.10
1956;DHT22;978;48.314;11.562;2023-09-19T06:00:40;23.90;88.10
1956;DHT22;978;48.314;11.562;2023-09-19T06:03:10;23.90;88.10
1956;DHT22;978;48.314;11.562;2023-09-19T06:05:40;24.00;88.20
1956;DHT22;978;48.314;11.562;2023-09-19T06:08:14;24.90;88.70
1956;DHT22;978;48.314;11.562;2023-09-19T06:10:46;24.00;88.10
1956;DHT22;978;48.314;11.562;2023-09-19T06:13:14;24.80;88.60
1956;DHT22;978;48.314;11.562;2023-09-19T06:15:43;24.00;88.10
1956;DHT22;978;48.314;11.562;2023-09-19T06:18:11;24.00;88.10
1956;DHT22;978;48.314;11.562;2023-09-19T06:20:43;23.90;88.10
1956;DHT22;978;48.314;11.562;2023-09-19T06:23:10;23.90;88.00
1956;DHT22;978;48.314;11.562;2023-09-19T06:25:38;23.90;88.00
1956;DHT22;978;48.314;11.562;2023-09-19T06:28:06;24.00;88.00
1956;DHT22;978;48.314;11.562;2023-09-19T06:30:39;23.90;88.00
1956;DHT22;978;48.314;11.562;2023-09-19T06:33:09;23.90;88.00
1956;DHT22;978;48.314;11.562;2023-09-19T06:35:39;24.00;88.00
1956;DHT22;978;48.314;11.562;2023-09-19T06:38:15;23.90;88.00
1956;DHT22;978;48.314;11.562;2023-09-19T06:40:46;24.00;88.00
1956;DHT22;978;48.314;11.562;2023-09-19T06:43:12;24.70;88.40
1956;DHT22;978;48.314;11.562;2023-09-19T06:45:40;23.90;87.90
1956;DHT22;978;48.314;11.562;2023-09-19T06:48:07;23.90;87.90
1956;DHT22;978;48.314;11.562;2023-09-19T06:50:35;23.30;87.60
1956;DHT22;978;48.314;11.562;2023-09-19T06:53:05;23.90;87.90
1956;DHT22;978;48.314;11.562;2023-09-19T06:55:33;24.20;88.00
1956;DHT22;978;48.314;11.562;2023-09-19T06:58:02;23.90;87.90
1956;DHT22;978;48.314;11.562;2023-09-19T07:00:32;24.00;87.90
1956;DHT22;978;48.314;11.562;2023-09-19T07:03:04;24.20;88.00
1956;DHT22;978;48.314;11.562;2023-09-19T07:05:35;23.90;87.90
1956;DHT22;978;48.314;11.562;2023-09-19T07:08:04;25.00;88.50
1956;DHT22;978;48.314;11.562;2023-09-19T07:10:34;23.90;87.90
1956;DHT22;978;48.314;11.562;2023-09-19T07:13:02;23.90;87.80
1956;DHT22;978;48.314;11.562;2023-09-19T07:15:33;23.90;87.80
1956;DHT22;978;48.314;11.562;2023-09-19T07:18:01;23.90;87.80
1956;DHT22;978;48.314;11.562;2023-09-19T07:20:29;24.80;88.30
1956;DHT22;978;48.314;11.562;2023-09-19T07:23:00;23.90;87.80
1956;DHT22;978;48.314;11.562;2023-09-19T07:25:29;23.90;87.80
1956;DHT22;978;48.314;11.562;2023-09-19T07:27:59;23.90;87.80
1956;DHT22;978;48.314;11.562;2023-09-19T07:30:28;24.00;87.80
1956;DHT22;978;48.314;11.562;2023-09-19T07:32:54;24.00;87.70
1956;DHT22;978;48.314;11.562;2023-09-19T07:35:21;23.90;87.50
1956;DHT22;978;48.314;11.562;2023-09-19T07:37:49;23.90;87.40
1956;DHT22;978;48.314;11.562;2023-09-19T07:40:19;24.00;87.70
1956;DHT22;978;48.314;11.562;2023-09-19T07:42:47;23.90;87.70
1956;DHT22;978;48.314;11.562;2023-09-19T07:45:16;23.90;87.60
1956;DHT22;978;48.314;11.562;2023-09-19T07:47:44;23.90;87.70
1956;DHT22;978;48.314;11.562;2023-09-19T07:50:13;23.90;87.70
1956;DHT22;978;48.314;11.562;2023-09-19T07:52:41;23.90;87.70
1956;DHT22;978;48.314;11.562;2023-09-19T07:55:09;23.80;87.70
1956;DHT22;978;48.314;11.562;2023-09-19T07:57:36;23.90;87.70
1956;DHT22;978;48.314;11.562;2023-09-19T08:00:04;24.00;87.80
1956;DHT22;978;48.314;11.562;2023-09-19T08:02:36;23.90;87.70
1956;DHT22;978;48.314;11.562;2023-09-19T08:05:04;24.30;88.00
1956;DHT22;978;48.314;11.562;2023-09-19T08:07:35;23.90;87.80
1956;DHT22;978;48.314;11.562;2023-09-19T08:10:03;25.50;88.80
1956;DHT22;978;48.314;11.562;2023-09-19T08:12:31;23.90;87.90
1956;DHT22;978;48.314;11.562;2023-09-19T08:14:58;23.90;87.90
1956;DHT22;978;48.314;11.562;2023-09-19T08:17:24;23.90;87.80
1956;DHT22;978;48.314;11.562;2023-09-19T08:19:56;23.90;87.70
1956;DHT22;978;48.314;11.562;2023-09-19T08:22:23;24.50;88.10
1956;DHT22;978;48.314;11.562;2023-09-19T08:24:51;23.90;87.70
1956;DHT22;978;48.314;11.562;2023-09-19T08:27:18;24.00;87.80
1956;DHT22;978;48.314;11.562;2023-09-19T08:29:45;24.00;87.80
1956;DHT22;978;48.314;11.562;2023-09-19T08:32:12;23.90;87.80
1956;DHT22;978;48.314;11.562;2023-09-19T08:34:39;23.90;87.70
1956;DHT22;978;48.314;11.562;2023-09-19T08:37:10;23.90;87.60
1956;DHT22;978;48.314;11.562;2023-09-19T08:39:37;23.90;87.60
1956;DHT22;978;48.314;11.562;2023-09-19T08:42:05;23.90;87.70
1956;DHT22;978;48.314;11.562;2023-09-19T08:44:37;23.90;87.60
1956;DHT22;978;48.314;11.562;2023-09-19T08:47:09;24.90;88.20
1956;DHT22;978;48.314;11.562;2023-09-19T08:49:45;24.50;88.00
1956;DHT22;978;48.314;11.562;2023-09-19T08:52:25;24.20;87.70
1956;DHT22;978;48.314;11.562;2023-09-19T08:54:58;24.90;88.10
1956;DHT22;978;48.314;11.562;2023-09-19T08:57:29;23.90;87.60
1956;DHT22;978;48.314;11.562;2023-09-19T09:00:01;23.90;87.50
1956;DHT22;978;48.314;11.562;2023-09-19T09:02:31;23.90;87.50
1956;DHT22;978;48.314;11.562;2023-09-19T09:05:04;24.60;87.90
1956;DHT22;978;48.314;11.562;2023-09-19T09:07:34;23.90;87.40
1956;DHT22;978;48.314;11.562;2023-09-19T09:10:05;24.80;88.00
1956;DHT22;978;48.314;11.562;2023-09-19T09:12:35;24.00;87.50
1956;DHT22;978;48.314;11.562;2023-09-19T09:15:07;23.90;87.40
1956;DHT22;978;48.314;11.562;2023-09-19T09:17:39;23.90;87.50
1956;DHT22;978;48.314;11.562;2023-09-19T09:20:06;23.90;87.40
1956;DHT22;978;48.314;11.562;2023-09-19T09:22:39;23.90;87.40
1956;DHT22;978;48.314;11.562;2023-09-19T09:25:19;25.30;88.20
1956;DHT22;978;48.314;11.562;2023-09-19T09:28:00;23.90;87.30
1956;DHT22;978;48.314;11.562;2023-09-19T09:30:36;24.90;87.90
1956;DHT22;978;48.314;11.562;2023-09-19T09:33:13;23.90;87.30
1956;DHT22;978;48.314;11.562;2023-09-19T09:36:11;23.90;87.30
1956;DHT22;978;48.314;11.562;2023-09-19T09:38:47;23.90;87.30
1956;DHT22;978;48.314;11.562;2023-09-19T09:41:36;23.90;87.30
1956;DHT22;978;48.314;11.562;2023-09-19T09:44:13;23.90;87.20
1956;DHT22;978;48.314;11.562;2023-09-19T09:46:43;23.90;87.20
1956;DHT22;978;48.314;11.562;2023-09-19T09:49:27;23.90;87.80
1956;DHT22;978;48.314;11.562;2023-09-19T09:52:01;23.90;87.30
1956;DHT22;978;48.314;11.562;2023-09-19T09:54:35;23.90;87.20
1956;DHT22;978;48.314;11.562;2023-09-19T09:57:09;23.90;87.20
1956;DHT22;978;48.314;11.562;2023-09-19T09:59:50;23.70;87.00
1956;DHT22;978;48.314;11.562;2023-09-19T10:02:21;23.90;87.20
1956;DHT22;978;48.314;11.562;2023-09-19T10:04:53;23.90;87.20
1956;DHT22;978;48.314;11.562;2023-09-19T10:07:40;23.90;87.10
1956;DHT22;978;48.314;11.562;2023-09-19T10:10:30;23.90;86.70
1956;DHT22;978;48.314;11.562;2023-09-19T10:13:05;23.90;86.00
1956;DHT22;978;48.314;11.562;2023-09-19T10:15:34;24.60;86.10
1956;DHT22;978;48.314;11.562;2023-09-19T10:18:04;23.90;85.40
1956;DHT22;978;48.314;11.562;2023-09-19T10:20:36;23.90;85.20
1956;DHT22;978;48.314;11.562;2023-09-19T10:23:06;25.00;85.50
1956;DHT22;978;48.314;11.562;2023-09-19T10:25:42;23.90;84.70
1956;DHT22;978;48.314;11.562;2023-09-19T10:28:17;24.10;84.80
1956;DHT22;978;48.314;11.562;2023-09-19T10:30:48;23.90;84.80
1956;DHT22;978;48.314;11.562;2023-09-19T10:33:18;23.90;85.10
1956;DHT22;978;48.314;11.562;2023-09-19T10:35:47;23.90;85.50
1956;DHT22;978;48.314;11.562;2023-09-19T10:38:19;23.90;85.70
1956;DHT22;978;48.314;11.562;2023-09-19T10:40:52;23.90;85.70
1956;DHT22;978;48.314;11.562;2023-09-19T10:43:23;23.90;85.80
1956;DHT22;978;48.314;11.562;2023-09-19T10:45:52;24.00;85.40
1956;DHT22;978;48.314;11.562;2023-09-19T10:48:21;23.90;85.00
1956;DHT22;978;48.314;11.562;2023-09-19T10:50:55;23.90;84.80
1956;DHT22;978;48.314;11.562;2023-09-19T10:53:26;23.90;84.80
1956;DHT22;978;48.314;11.562;2023-09-19T10:55:59;24.00;84.70
1956;DHT22;978;48.314;11.562;2023-09-19T10:58:29;25.00;85.10
1956;DHT22;978;48.314;11.562;2023-09-19T11:01:01;24.10;84.30
1956;DHT22;978;48.314;11.562;2023-09-19T11:03:39;23.60;83.80
1956;DHT22;978;48.314;11.562;2023-09-19T11:06:11;23.90;83.80
1956;DHT22;978;48.314;11.562;2023-09-19T11:08:58;23.90;83.60
1956;DHT22;978;48.314;11.562;2023-09-19T11:11:46;23.90;83.70
1956;DHT22;978;48.314;11.562;2023-09-19T11:14:29;23.90;83.80
1956;DHT22;978;48.314;11.562;2023-09-19T11:17:29;23.90;83.90
1956;DHT22;978;48.314;11.562;2023-09-19T11:20:22;23.90;84.30
1956;DHT22;978;48.314;11.562;2023-09-19T11:23:23;23.90;84.70
1956;DHT22;978;48.314;11.562;2023-09-19T11:25:52;23.90;85.50
1956;DHT22;978;48.314;11.562;2023-09-19T11:28:31;23.90;85.80
1956;DHT22;978;48.314;11.562;2023-09-19T11:30:59;23.90;85.90
1956;DHT22;978;48.314;11.562;2023-09-19T11:36:59;23.90;86.00
1956;DHT22;978;48.314;11.562;2023-09-19T11:39:27;23.90;86.00
1956;DHT22;978;48.314;11.562;2023-09-19T11:41:55;23.90;86.10
1956;DHT22;978;48.314;11.562;2023-09-19T11:44:33;24.00;86.20
1956;DHT22;978;48.314;11.562;2023-09-19T11:47:04;24.00;86.20
1956;DHT22;978;48.314;11.562;2023-09-19T11:49:40;25.20;86.90
1956;DHT22;978;48.314;11.562;2023-09-19T11:52:08;23.90;86.20
1956;DHT22;978;48.314;11.562;2023-09-19T11:54:37;25.00;86.90
1956;DHT22;978;48.314;11.562;2023-09-19T11:57:09;25.30;87.10
1956;DHT22;978;48.314;11.562;2023-09-19T11:59:40;23.90;86.30
1956;DHT22;978;48.314;11.562;2023-09-19T12:02:07;23.90;86.30
1956;DHT22;978;48.314;11.562;2023-09-19T12:04:39;24.40;86.60
1956;DHT22;978;48.314;11.562;2023-09-19T12:07:10;23.90;86.40
1956;DHT22;978;48.314;11.562;2023-09-19T12:09:42;23.90;86.50
1956;DHT22;978;48.314;11.562;2023-09-19T12:12:19;23.90;86.50
1956;DHT22;978;48.314;11.562;2023-09-19T12:14:49;24.30;86.80
1956;DHT22;978;48.314;11.562;2023-09-19T12:17:17;23.80;86.60
1956;DHT22;978;48.314;11.562;2023-09-19T12:19:55;23.90;86.70
1956;DHT22;978;48.314;11.562;2023-09-19T12:22:23;23.90;86.80
1956;DHT22;978;48.314;11.562;2023-09-19T12:24:50;24.00;86.80
1956;DHT22;978;48.314;11.562;2023-09-19T12:27:22;23.90;86.80
1956;DHT22;978;48.314;11.562;2023-09-19T12:29:52;23.90;86.80
1956;DHT22;978;48.314;11.562;2023-09-19T12:32:34;23.90;86.90
1956;DHT22;978;48.314;11.562;2023-09-19T12:35:04;23.90;86.90
1956;DHT22;978;48.314;11.562;2023-09-19T12:37:38;23.90;86.90
1956;DHT22;978;48.314;11.562;2023-09-19T12:40:11;23.80;86.90
1956;DHT22;978;48.314;11.562;2023-09-19T12:42:48;23.90;87.00
1956;DHT22;978;48.314;11.562;2023-09-19T12:45:17;23.90;87.00
1956;DHT22;978;48.314;11.562;2023-09-19T12:48:17;23.90;87.10
1956;DHT22;978;48.314;11.562;2023-09-19T12:51:06;23.90;87.10
1956;DHT22;978;48.314;11.562;2023-09-19T12:53:36;23.90;87.10
1956;DHT22;978;48.314;11.562;2023-09-19T12:56:06;23.90;87.10
1956;DHT22;978;48.314;11.562;2023-09-19T12:58:35;23.90;87.10
1956;DHT22;978;48.314;11.562;2023-09-19T13:01:14;23.90;87.20
1956;DHT22;978;48.314;11.562;2023-09-19T13:03:45;23.80;87.10
1956;DHT22;978;48.314;11.562;2023-09-19T13:06:13;23.90;87.20
1956;DHT22;978;48.314;11.562;2023-09-19T13:08:43;23.90;87.30
1956;DHT22;978;48.314;11.562;2023-09-19T13:11:21;23.90;87.30
1956;DHT22;978;48.314;11.562;2023-09-19T13:13:50;24.10;87.40
1956;DHT22;978;48.314;11.562;2023-09-19T13:16:21;24.00;87.40
1956;DHT22;978;48.314;11.562;2023-09-19T13:18:51;23.90;87.30
1956;DHT22;978;48.314;11.562;2023-09-19T13:21:32;23.90;87.30
1956;DHT22;978;48.314;11.562;2023-09-19T13:24:23;23.90;87.30
1956;DHT22;978;48.314;11.562;2023-09-19T13:26:53;23.90;87.30
1956;DHT22;978;48.314;11.562;2023-09-19T13:29:21;23.90;87.20
1956;DHT22;978;48.314;11.562;2023-09-19T13:31:48;23.90;87.20
1956;DHT22;978;48.314;11.562;2023-09-19T13:34:15;24.70;87.60
1956;DHT22;978;48.314;11.562;2023-09-19T13:36:46;23.80;87.10
1956;DHT22;978;48.314;11.562;2023-09-19T13:39:13;23.80;87.00
1956;DHT22;978;48.314;11.562;2023-09-19T13:41:44;24.10;87.20
1956;DHT22;978;48.314;11.562;2023-09-19T13:44:12;23.90;87.10
1956;DHT22;978;48.314;11.562;2023-09-19T13:46:40;23.90;87.00
1956;DHT22;978;48.314;11.562;2023-09-19T13:49:11;23.90;87.00
1956;DHT22;978;48.314;11.562;2023-09-19T13:51:39;23.90;87.00
1956;DHT22;978;48.314;11.562;2023-09-19T13:54:10;23.90;87.00
1956;DHT22;978;48.314;11.562;2023-09-19T13:56:39;23.80;86.90
1956;DHT22;978;48.314;11.562;2023-09-19T13:59:06;23.90;86.90
1956;DHT22;978;48.314;11.562;2023-09-19T14:01:33;23.30;86.60
1956;DHT22;978;48.314;11.562;2023-09-19T14:04:01;23.90;86.90
1956;DHT22;978;48.314;11.562;2023-09-19T14:06:29;23.90;87.00
1956;DHT22;978;48.314;11.562;2023-09-19T14:08:55;24.40;87.20
1956;DHT22;978;48.314;11.562;2023-09-19T14:11:24;24.30;87.10
1956;DHT22;978;48.314;11.562;2023-09-19T14:13:52;23.90;87.40
1956;DHT22;978;48.314;11.562;2023-09-19T14:16:20;23.90;86.80
1956;DHT22;978;48.314;11.562;2023-09-19T14:18:56;23.90;86.80
1956;DHT22;978;48.314;11.562;2023-09-19T14:21:24;24.80;87.30
1956;DHT22;978;48.314;11.562;2023-09-19T14:23:51;23.90;86.80
1956;DHT22;978;48.314;11.562;2023-09-19T14:26:21;23.90;86.70
1956;DHT22;978;48.314;11.562;2023-09-19T14:28:51;23.90;86.70
1956;DHT22;978;48.314;11.562;2023-09-19T14:31:18;23.90;86.70
1956;DHT22;978;48.314;11.562;2023-09-19T14:33:53;24.80;87.20
1956;DHT22;978;48.314;11.562;2023-09-19T14:36:21;23.90;86.70
1956;DHT22;978;48.314;11.562;2023-09-19T14:38:52;23.90;86.70
1956;DHT22;978;48.314;11.562;2023-09-19T14:41:21;23.90;86.70
1956;DHT22;978;48.314;11.562;2023-09-19T14:43:52;23.90;86.60
1956;DHT22;978;48.314;11.562;2023-09-19T14:46:20;23.90;86.60
1956;DHT22;978;48.314;11.562;2023-09-19T14:48:51;23.90;86.60
1956;DHT22;978;48.314;11.562;2023-09-19T14:51:17;23.90;86.50
1956;DHT22;978;48.314;11.562;2023-09-19T14:53:48;23.90;86.50
1956;DHT22;978;48.314;11.562;2023-09-19T14:56:15;23.90;86.50
1956;DHT22;978;48.314;11.562;2023-09-19T14:58:47;23.90;86.50
1956;DHT22;978;48.314;11.562;2023-09-19T15:01:17;23.90;86.80
1956;DHT22;978;48.314;11.562;2023-09-19T15:03:45;23.90;86.50
1956;DHT22;978;48.314;11.562;2023-09-19T15:06:15;23.90;86.50
1956;DHT22;978;48.314;11.562;2023-09-19T15:08:44;23.90;86.50
1956;DHT22;978;48.314;11.562;2023-09-19T15:11:13;25.00;87.00
1956;DHT22;978;48.314;11.562;2023-09-19T15:13:44;23.90;86.40
1956;DHT22;978;48.314;11.562;2023-09-19T15:16:12;24.00;86.40
1956;DHT22;978;48.314;11.562;2023-09-19T15:18:44;23.90;86.40
1956;DHT22;978;48.314;11.562;2023-09-19T15:21:13;23.90;86.40
1956;DHT22;978;48.314;11.562;2023-09-19T15:23:42;23.90;86.30
1956;DHT22;978;48.314;11.562;2023-09-19T15:26:12;23.90;86.30
1956;DHT22;978;48.314;11.562;2023-09-19T15:28:39;24.00;86.30
1956;DHT22;978;48.314;11.562;2023-09-19T15:31:10;24.10;86.40
1956;DHT22;978;48.314;11.562;2023-09-19T15:33:37;23.90;86.20
1956;DHT22;978;48.314;11.562;2023-09-19T15:36:09;24.00;86.30
1956;DHT22;978;48.314;11.562;2023-09-19T15:39:06;23.90;86.30
1956;DHT22;978;48.314;11.562;2023-09-19T15:41:38;23.90;86.30
1956;DHT22;978;48.314;11.562;2023-09-19T15:44:12;23.80;86.20
1956;DHT22;978;48.314;11.562;2023-09-19T15:46:39;23.90;86.20
1956;DHT22;978;48.314;11.562;2023-09-19T15:49:06;23.90;86.20
1956;DHT22;978;48.314;11.562;2023-09-19T15:51:35;25.20;87.00
1956;DHT22;978;48.314;11.562;2023-09-19T15:54:09;23.90;86.20
1956;DHT22;978;48.314;11.562;2023-09-19T15:56:36;23.90;86.20
1956;DHT22;978;48.314;11.562;2023-09-19T15:59:04;23.90;86.20
1956;DHT22;978;48.314;11.562;2023-09-19T16:01:32;23.90;86.20
1956;DHT22;978;48.314;11.562;2023-09-19T16:04:00;23.90;86.20
1956;DHT22;978;48.314;11.562;2023-09-19T16:06:31;23.90;86.10
1956;DHT22;978;48.314;11.562;2023-09-19T16:08:59;23.90;86.10
1956;DHT22;978;48.314;11.562;2023-09-19T16:11:33;24.00;86.20
1956;DHT22;978;48.314;11.562;2023-09-19T16:14:00;23.90;86.20
1956;DHT22;978;48.314;11.562;2023-09-19T16:16:31;23.90;86.20
1956;DHT22;978;48.314;11.562;2023-09-19T16:19:01;23.90;86.10
1956;DHT22;978;48.314;11.562;2023-09-19T16:21:32;24.20;86.30
1956;DHT22;978;48.314;11.562;2023-09-19T16:24:02;23.80;86.00
1956;DHT22;978;48.314;11.562;2023-09-19T16:26:31;23.90;86.00
1956;DHT22;978;48.314;11.562;2023-09-19T16:28:58;25.00;86.50